Back to Top

Language: 

My Weather Underground Personal Weather Station Historical Data with Graphs...

Delerius Weather Station Historical Data
Daily Summary for March 19, 2017 Units:  Metric    English   Both
« Previous Day
Next Day »
Daily Weekly Monthly Yearly Custom
  High: Low: Average:
Temperature: 14.8 °C 9.8 °C 12.4 °C
Dew Point: 11 °C 7.8 °C 9.7 °C
Humidity: 93 % 77 % 84 %
Wind Speed: 40.2 km/h 0 km/h 20.3 km/h
Wind Gust: 66 km/h - -
Wind:- - WSW
Pressure: 1005 hPa 999.5 hPa -
Precipitation: 0.25 mm    
Historical Graphs
 
 
Tabular Data for March 19, 2017
Time Temperature Dew Point Pressure Wind Wind Speed Wind Gust Humidity Rainfall Rate (Hourly) solar Conditions
00:04 12.3 °C 10.7 °C 1005 hPa WSW 17.7 km/h 37 km/h 90 % 0 mm 0 W/m2
00:09 12.4 °C 10.8 °C 1005 hPa WSW 17.7 km/h 35.4 km/h 90 % 0 mm 0 W/m2
00:14 12.5 °C 10.9 °C 1004.6 hPa WSW 20.9 km/h 35.4 km/h 90 % 0 mm 0 W/m2
00:19 12.6 °C 10.8 °C 1004.6 hPa WSW 19.3 km/h 35.4 km/h 89 % 0 mm 0 W/m2
00:24 12.6 °C 10.8 °C 1004.6 hPa WSW 17.7 km/h 32.2 km/h 89 % 0 mm 0 W/m2
00:29 12.7 °C 10.9 °C 1004.6 hPa WSW 17.7 km/h 35.4 km/h 89 % 0 mm 0 W/m2
00:34 12.7 °C 10.8 °C 1004.6 hPa WSW 17.7 km/h 35.4 km/h 88 % 0 mm 0 W/m2
00:39 12.7 °C 10.8 °C 1004.6 hPa WSW 19.3 km/h 38.6 km/h 88 % 0 mm 0 W/m2
00:45 12.8 °C 10.7 °C 1004.3 hPa WSW 22.5 km/h 38.6 km/h 87 % 0 mm 0 W/m2
00:50 12.9 °C 10.8 °C 1004.3 hPa WSW 22.5 km/h 40.2 km/h 87 % 0 mm 0 W/m2
00:55 12.9 °C 10.8 °C 1004.3 hPa WSW 20.9 km/h 40.2 km/h 87 % 0 mm 0 W/m2
01:00 12.9 °C 10.8 °C 1004.3 hPa WSW 20.9 km/h 38.6 km/h 87 % 0 mm 0 W/m2
01:05 12.9 °C 10.8 °C 1004.6 hPa WSW 17.7 km/h 32.2 km/h 87 % 0 mm 0 W/m2
01:10 12.9 °C 10.8 °C 1004.6 hPa WSW 17.7 km/h 30.6 km/h 87 % 0 mm 0 W/m2
01:15 12.9 °C 10.6 °C 1004.3 hPa WSW 17.7 km/h 32.2 km/h 86 % 0 mm 0 W/m2
01:20 12.9 °C 10.6 °C 1004.3 hPa WSW 17.7 km/h 35.4 km/h 86 % 0 mm 0 W/m2
01:25 12.9 °C 10.6 °C 1004.6 hPa WSW 19.3 km/h 35.4 km/h 86 % 0 mm 0 W/m2
01:30 12.9 °C 10.6 °C 1004.3 hPa West 20.9 km/h 33.8 km/h 86 % 0 mm 0 W/m2
01:35 12.9 °C 10.6 °C 1004.3 hPa WSW 17.7 km/h 33.8 km/h 86 % 0 mm 0 W/m2
01:40 12.9 °C 10.4 °C 1004.3 hPa WSW 17.7 km/h 32.2 km/h 85 % 0 mm 0 W/m2
01:45 12.9 °C 10.4 °C 1004.3 hPa WSW 20.9 km/h 38.6 km/h 85 % 0 mm 0 W/m2
01:50 12.9 °C 10.3 °C 1004.3 hPa WSW 22.5 km/h 38.6 km/h 84 % 0 mm 0 W/m2
01:55 12.9 °C 10.3 °C 1003.9 hPa WSW 25.7 km/h 43.5 km/h 84 % 0 mm 0 W/m2
02:00 12.9 °C 10.3 °C 1003.6 hPa WSW 25.7 km/h 43.5 km/h 84 % 0 mm 0 W/m2
02:05 12.8 °C 10.2 °C 1003.9 hPa WSW 24.1 km/h 40.2 km/h 84 % 0 mm 0 W/m2
02:10 12.8 °C 10.2 °C 1003.6 hPa WSW 27.4 km/h 45.1 km/h 84 % 0 mm 0 W/m2
02:15 12.7 °C 10.2 °C 1003.3 hPa WSW 25.7 km/h 45.1 km/h 85 % 0 mm 0 W/m2
02:20 12.6 °C 10.2 °C 1003.3 hPa WSW 22.5 km/h 38.6 km/h 85 % 0 mm 0 W/m2
02:25 12.6 °C 9.9 °C 1003.3 hPa WSW 22.5 km/h 35.4 km/h 84 % 0 mm 0 W/m2
02:30 12.5 °C 9.9 °C 1003.3 hPa WSW 22.5 km/h 37 km/h 84 % 0 mm 0 W/m2
02:35 12.4 °C 9.9 °C 1003.3 hPa WSW 20.9 km/h 37 km/h 85 % 0 mm 0 W/m2
02:40 12.3 °C 9.8 °C 1003.3 hPa WSW 19.3 km/h 37 km/h 85 % 0 mm 0 W/m2
02:42 12.3 °C 9.8 °C 1003.3 hPa WSW 19.3 km/h 37 km/h 85 % 0 mm 0 W/m2
02:47 12.2 °C 9.8 °C 1003.3 hPa WSW 20.9 km/h 40.2 km/h 85 % 0 mm 0 W/m2
02:52 12.2 °C 9.8 °C 1003.3 hPa WSW 20.9 km/h 40.2 km/h 85 % 0 mm 0 W/m2
02:57 12.2 °C 9.8 °C 1002.9 hPa WSW 22.5 km/h 41.8 km/h 85 % 0 mm 0 W/m2
03:02 12.2 °C 9.8 °C 1002.9 hPa WSW 22.5 km/h 41.8 km/h 85 % 0 mm 0 W/m2
03:07 12.2 °C 9.8 °C 1002.9 hPa WSW 20.9 km/h 33.8 km/h 85 % 0 mm 0 W/m2
03:12 12.2 °C 9.6 °C 1002.9 hPa WSW 24.1 km/h 41.8 km/h 84 % 0 mm 0 W/m2
03:17 12.2 °C 9.6 °C 1002.9 hPa WSW 24.1 km/h 41.8 km/h 84 % 0 mm 0 W/m2
03:22 12.2 °C 9.6 °C 1002.9 hPa WSW 25.7 km/h 49.9 km/h 84 % 0 mm 0 W/m2
03:27 12.2 °C 9.6 °C 1002.9 hPa West 25.7 km/h 49.9 km/h 84 % 0.25 mm 0 W/m2
03:32 12.2 °C 9.8 °C 1002.6 hPa West 22.5 km/h 40.2 km/h 85 % 0.25 mm 0 W/m2
03:37 12.1 °C 9.7 °C 1002.6 hPa WSW 20.9 km/h 40.2 km/h 85 % 0.25 mm 0 W/m2
03:42 12.1 °C 9.7 °C 1002.9 hPa WSW 22.5 km/h 40.2 km/h 85 % 0.25 mm 0 W/m2
03:47 12.1 °C 9.7 °C 1002.6 hPa WSW 24.1 km/h 48.3 km/h 85 % 0.25 mm 0 W/m2
03:52 12.1 °C 9.7 °C 1002.6 hPa WSW 24.1 km/h 48.3 km/h 85 % 0.25 mm 0 W/m2
03:58 12 °C 9.6 °C 1002.6 hPa WSW 22.5 km/h 40.2 km/h 85 % 0.25 mm 0 W/m2
04:03 11.9 °C 9.4 °C 1002.6 hPa WSW 24.1 km/h 41.8 km/h 85 % 0.25 mm 0 W/m2
04:08 11.9 °C 9.4 °C 1002.3 hPa WSW 25.7 km/h 41.8 km/h 85 % 0.25 mm 0 W/m2
04:13 11.9 °C 9.4 °C 1002.3 hPa WSW 22.5 km/h 38.6 km/h 85 % 0.25 mm 0 W/m2
04:18 11.9 °C 9.4 °C 1002.3 hPa WSW 20.9 km/h 41.8 km/h 85 % 0.25 mm 0 W/m2
04:23 11.9 °C 9.4 °C 1002.3 hPa WSW 19.3 km/h 41.8 km/h 85 % 0 mm 0 W/m2
04:28 11.9 °C 9.4 °C 1002.3 hPa WSW 20.9 km/h 38.6 km/h 85 % 0 mm 0 W/m2
04:33 11.8 °C 9.3 °C 1002.3 hPa WSW 24.1 km/h 45.1 km/h 85 % 0 mm 0 W/m2
04:38 11.8 °C 9.3 °C 1002.6 hPa WSW 27.4 km/h 46.7 km/h 85 % 0 mm 0 W/m2
04:43 11.8 °C 9.3 °C 1002.6 hPa WSW 29 km/h 49.9 km/h 85 % 0 mm 0 W/m2
04:48 11.8 °C 9.3 °C 1002.3 hPa WSW 25.7 km/h 49.9 km/h 85 % 0 mm 0 W/m2
04:53 11.7 °C 9.3 °C 1002.3 hPa WSW 25.7 km/h 45.1 km/h 85 % 0 mm 0 W/m2
04:58 11.7 °C 9.3 °C 1002.3 hPa WSW 25.7 km/h 45.1 km/h 85 % 0 mm 0 W/m2
05:03 11.6 °C 9.2 °C 1002.6 hPa WSW 22.5 km/h 40.2 km/h 85 % 0 mm 0 W/m2
05:08 11.6 °C 9.2 °C 1002.3 hPa WSW 22.5 km/h 40.2 km/h 85 % 0 mm 0 W/m2
05:13 11.6 °C 9.2 °C 1002.3 hPa WSW 22.5 km/h 43.5 km/h 85 % 0 mm 0 W/m2
05:18 11.6 °C 9.2 °C 1002.3 hPa WSW 24.1 km/h 43.5 km/h 85 % 0 mm 0 W/m2
05:23 11.6 °C 9.2 °C 1002.3 hPa WSW 25.7 km/h 38.6 km/h 85 % 0 mm 0 W/m2
05:28 11.6 °C 9.2 °C 1002.3 hPa WSW 24.1 km/h 40.2 km/h 85 % 0 mm 0 W/m2
05:33 11.5 °C 9.1 °C 1002.3 hPa WSW 22.5 km/h 40.2 km/h 85 % 0 mm 0 W/m2
05:38 11.5 °C 9.1 °C 1002.3 hPa WSW 22.5 km/h 38.6 km/h 85 % 0 mm 0 W/m2
05:43 11.4 °C 8.9 °C 1002.3 hPa WSW 22.5 km/h 40.2 km/h 85 % 0 mm 0 W/m2
05:48 11.4 °C 8.9 °C 1002.3 hPa WSW 19.3 km/h 40.2 km/h 85 % 0 mm 0 W/m2
05:53 11.4 °C 8.9 °C 1002.3 hPa WSW 20.9 km/h 38.6 km/h 85 % 0 mm 0 W/m2
05:58 11.4 °C 9.2 °C 1002.3 hPa WSW 24.1 km/h 38.6 km/h 86 % 0 mm 0 W/m2
06:03 11.3 °C 9.1 °C 1002.3 hPa WSW 22.5 km/h 38.6 km/h 86 % 0 mm 0 W/m2
06:08 11.3 °C 9.1 °C 1002.3 hPa WSW 24.1 km/h 48.3 km/h 86 % 0 mm 0 W/m2
06:13 11.3 °C 9.1 °C 1002.3 hPa WSW 27.4 km/h 48.3 km/h 86 % 0 mm 0 W/m2
06:18 11.3 °C 9.1 °C 1002.3 hPa WSW 27.4 km/h 48.3 km/h 86 % 0 mm 0 W/m2
06:23 11.3 °C 9.1 °C 1002.3 hPa WSW 25.7 km/h 45.1 km/h 86 % 0 mm 5 W/m2
06:28 11.2 °C 8.9 °C 1002.3 hPa WSW 24.1 km/h 43.5 km/h 86 % 0 mm 5 W/m2
06:33 11.2 °C 8.9 °C 1002.3 hPa WSW 22.5 km/h 37 km/h 86 % 0 mm 7 W/m2
06:38 11.2 °C 8.9 °C 1002.6 hPa WSW 22.5 km/h 40.2 km/h 86 % 0 mm 7 W/m2
06:43 11.2 °C 8.9 °C 1002.3 hPa WSW 22.5 km/h 40.2 km/h 86 % 0 mm 7 W/m2
06:48 11.3 °C 9.1 °C 1002.3 hPa WSW 20.9 km/h 40.2 km/h 86 % 0 mm 11 W/m2
06:53 11.3 °C 9.1 °C 1002.3 hPa WSW 20.9 km/h 40.2 km/h 86 % 0 mm 30 W/m2
06:58 11.3 °C 9.1 °C 1002.3 hPa WSW 24.1 km/h 43.5 km/h 86 % 0 mm 18 W/m2
07:03 11.4 °C 9.2 °C 1001.9 hPa WSW 24.1 km/h 43.5 km/h 86 % 0 mm 26 W/m2
07:08 11.4 °C 9.2 °C 1001.9 hPa WSW 20.9 km/h 38.6 km/h 86 % 0 mm 28 W/m2
07:13 11.3 °C 9.1 °C 1001.9 hPa WSW 22.5 km/h 43.5 km/h 86 % 0 mm 30 W/m2
07:18 11.3 °C 9.1 °C 1001.9 hPa WSW 22.5 km/h 43.5 km/h 86 % 0 mm 19 W/m2
07:23 11.3 °C 9.1 °C 1001.9 hPa SW 20.9 km/h 37 km/h 86 % 0 mm 26 W/m2
07:28 11.4 °C 9.2 °C 1001.6 hPa SW 22.5 km/h 40.2 km/h 86 % 0 mm 19 W/m2
07:33 11.4 °C 9.2 °C 1001.6 hPa SW 24.1 km/h 48.3 km/h 86 % 0 mm 28 W/m2
07:38 11.4 °C 9.2 °C 1001.6 hPa WSW 22.5 km/h 48.3 km/h 86 % 0 mm 30 W/m2
07:43 11.4 °C 9.3 °C 1001.6 hPa SW 20.9 km/h 37 km/h 87 % 0 mm 19 W/m2
07:48 11.4 °C 9.2 °C 1001.6 hPa SW 22.5 km/h 45.1 km/h 86 % 0 mm 39 W/m2
07:53 11.4 °C 9.3 °C 1001.6 hPa SW 24.1 km/h 46.7 km/h 87 % 0 mm 44 W/m2
07:58 11.4 °C 9.3 °C 1001.6 hPa SW 24.1 km/h 46.7 km/h 87 % 0 mm 76 W/m2
08:03 11.4 °C 9.3 °C 1001.6 hPa SW 25.7 km/h 40.2 km/h 87 % 0 mm 65 W/m2
08:08 11.5 °C 9.4 °C 1001.9 hPa SW 25.7 km/h 48.3 km/h 87 % 0 mm 39 W/m2
08:13 11.5 °C 9.4 °C 1001.6 hPa SW 22.5 km/h 48.3 km/h 87 % 0 mm 49 W/m2
08:18 11.5 °C 9.4 °C 1001.6 hPa WSW 20.9 km/h 40.2 km/h 87 % 0 mm 58 W/m2
08:23 11.5 °C 9.4 °C 1001.6 hPa WSW 22.5 km/h 46.7 km/h 87 % 0 mm 81 W/m2
08:28 11.6 °C 9.5 °C 1001.2 hPa SW 22.5 km/h 46.7 km/h 87 % 0 mm 111 W/m2
08:33 11.7 °C 9.6 °C 1001.2 hPa SW 19.3 km/h 40.2 km/h 87 % 0 mm 121 W/m2
08:38 11.7 °C 9.6 °C 1001.2 hPa SW 19.3 km/h 33.8 km/h 87 % 0 mm 76 W/m2
08:43 11.8 °C 9.7 °C 1001.2 hPa WSW 24.1 km/h 43.5 km/h 87 % 0 mm 79 W/m2
08:48 11.9 °C 9.6 °C 1001.6 hPa WSW 24.1 km/h 45.1 km/h 86 % 0 mm 120 W/m2
08:53 11.9 °C 9.6 °C 1001.2 hPa WSW 24.1 km/h 45.1 km/h 86 % 0 mm 127 W/m2
08:59 12 °C 9.7 °C 1001.2 hPa WSW 25.7 km/h 45.1 km/h 86 % 0 mm 84 W/m2
09:01 12 °C 9.7 °C 1001.2 hPa WSW 25.7 km/h 45.1 km/h 86 % 0 mm 123 W/m2
09:06 12.1 °C 9.8 °C 1001.2 hPa WSW 25.7 km/h 45.1 km/h 86 % 0 mm 100 W/m2
09:11 12.2 °C 9.8 °C 1001.2 hPa WSW 25.7 km/h 41.8 km/h 85 % 0 mm 127 W/m2
09:16 12.2 °C 9.8 °C 1001.6 hPa WSW 25.7 km/h 41.8 km/h 85 % 0 mm 56 W/m2
09:21 12.3 °C 9.8 °C 1001.2 hPa WSW 20.9 km/h 37 km/h 85 % 0 mm 95 W/m2
09:26 12.2 °C 9.8 °C 1001.2 hPa WSW 20.9 km/h 35.4 km/h 85 % 0 mm 90 W/m2
09:31 12.3 °C 9.8 °C 1001.2 hPa WSW 22.5 km/h 38.6 km/h 85 % 0 mm 111 W/m2
09:36 12.3 °C 9.8 °C 1001.2 hPa WSW 24.1 km/h 45.1 km/h 85 % 0 mm 121 W/m2
09:41 12.3 °C 9.8 °C 1001.2 hPa WSW 22.5 km/h 45.1 km/h 85 % 0 mm 70 W/m2
09:46 12.3 °C 9.8 °C 1001.2 hPa WSW 22.5 km/h 43.5 km/h 85 % 0 mm 142 W/m2
09:51 12.3 °C 9.8 °C 1001.2 hPa WSW 22.5 km/h 43.5 km/h 85 % 0 mm 97 W/m2
09:56 12.4 °C 9.9 °C 1001.2 hPa WSW 20.9 km/h 45.1 km/h 85 % 0 mm 139 W/m2
10:01 12.4 °C 9.9 °C 1000.9 hPa WSW 24.1 km/h 45.1 km/h 85 % 0 mm 200 W/m2
10:06 12.6 °C 10.2 °C 1000.9 hPa WSW 27.4 km/h 48.3 km/h 85 % 0 mm 142 W/m2
10:11 12.6 °C 9.9 °C 1001.2 hPa WSW 27.4 km/h 48.3 km/h 84 % 0 mm 116 W/m2
10:16 12.6 °C 9.9 °C 1001.2 hPa WSW 24.1 km/h 40.2 km/h 84 % 0 mm 142 W/m2
10:21 12.6 °C 10.2 °C 1001.2 hPa WSW 19.3 km/h 38.6 km/h 85 % 0 mm 104 W/m2
10:26 12.6 °C 9.9 °C 1001.2 hPa WSW 19.3 km/h 37 km/h 84 % 0 mm 102 W/m2
10:31 12.7 °C 10.1 °C 1001.2 hPa WSW 22.5 km/h 41.8 km/h 84 % 0 mm 114 W/m2
10:36 12.6 °C 9.9 °C 1001.2 hPa WSW 20.9 km/h 41.8 km/h 84 % 0 mm 127 W/m2
10:41 12.7 °C 10.1 °C 1001.2 hPa WSW 20.9 km/h 38.6 km/h 84 % 0 mm 102 W/m2
10:46 12.7 °C 10.1 °C 1001.2 hPa WSW 20.9 km/h 40.2 km/h 84 % 0 mm 207 W/m2
10:51 12.8 °C 10 °C 1001.2 hPa WSW 24.1 km/h 43.5 km/h 83 % 0 mm 62 W/m2
10:56 12.9 °C 10.1 °C 1001.2 hPa WSW 22.5 km/h 43.5 km/h 83 % 0 mm 93 W/m2
11:01 13 °C 10.2 °C 1000.9 hPa WSW 22.5 km/h 45.1 km/h 83 % 0 mm 174 W/m2
11:06 13.1 °C 10.1 °C 1000.9 hPa WSW 27.4 km/h 46.7 km/h 82 % 0 mm 137 W/m2
11:11 13.2 °C 10.2 °C 1000.6 hPa WSW 27.4 km/h 46.7 km/h 82 % 0 mm 323 W/m2
11:16 13.6 °C 10.6 °C 1000.6 hPa WSW 24.1 km/h 46.7 km/h 82 % 0 mm 285 W/m2
11:21 14.1 °C 10.5 °C 1000.6 hPa WSW 27.4 km/h 54.7 km/h 79 % 0 mm 617 W/m2
11:26 14.2 °C 10.4 °C 1000.2 hPa WSW 35.4 km/h 59.5 km/h 78 % 0 mm 638 W/m2
11:31 14.2 °C 10.6 °C 1000.2 hPa WSW 33.8 km/h 59.5 km/h 79 % 0 mm 642 W/m2
11:36 14.4 °C 10.8 °C 1000.6 hPa WSW 29 km/h 53.1 km/h 79 % 0 mm 677 W/m2
11:41 14.5 °C 10.7 °C 1000.2 hPa WSW 30.6 km/h 56.3 km/h 78 % 0 mm 661 W/m2
11:47 14.4 °C 11 °C 1000.2 hPa WSW 30.6 km/h 56.3 km/h 80 % 0 mm 413 W/m2
11:52 14.3 °C 10.9 °C 1000.6 hPa West 29 km/h 53.1 km/h 80 % 0 mm 656 W/m2
11:57 14.2 °C 11 °C 1000.2 hPa WSW 29 km/h 54.7 km/h 81 % 0 mm 643 W/m2
12:02 14.4 °C 10.8 °C 1000.6 hPa WSW 32.2 km/h 54.7 km/h 79 % 0 mm 661 W/m2
12:07 14.4 °C 10.6 °C 1000.2 hPa WSW 37 km/h 62.8 km/h 78 % 0 mm 647 W/m2
12:12 14.4 °C 10.8 °C 1000.2 hPa WSW 37 km/h 62.8 km/h 79 % 0 mm 656 W/m2
12:17 14.5 °C 10.7 °C 1000.2 hPa WSW 35.4 km/h 59.5 km/h 78 % 0 mm 650 W/m2
12:22 14.6 °C 10.8 °C 1000.2 hPa West 32.2 km/h 57.9 km/h 78 % 0 mm 649 W/m2
12:27 14.7 °C 10.9 °C 1000.2 hPa West 30.6 km/h 49.9 km/h 78 % 0 mm 659 W/m2
12:32 14.8 °C 10.8 °C 1000.6 hPa West 30.6 km/h 49.9 km/h 77 % 0 mm 689 W/m2
12:37 14.8 °C 10.8 °C 1000.6 hPa West 33.8 km/h 54.7 km/h 77 % 0 mm 724 W/m2
12:42 14.8 °C 10.8 °C 1000.2 hPa West 35.4 km/h 54.7 km/h 77 % 0 mm 545 W/m2
12:47 14.8 °C 10.8 °C 1000.2 hPa West 33.8 km/h 51.5 km/h 77 % 0 mm 714 W/m2
12:52 14.7 °C 10.7 °C 999.9 hPa West 35.4 km/h 57.9 km/h 77 % 0 mm 657 W/m2
12:57 14.5 °C 10.7 °C 999.9 hPa West 38.6 km/h 66 km/h 78 % 0 mm 538 W/m2
13:02 14.5 °C 10.7 °C 999.9 hPa West 38.6 km/h 66 km/h 78 % 0 mm 726 W/m2
13:07 14.3 °C 10.5 °C 999.9 hPa West 37 km/h 62.8 km/h 78 % 0 mm 394 W/m2
13:12 14.3 °C 10.7 °C 999.9 hPa West 33.8 km/h 54.7 km/h 79 % 0 mm 621 W/m2
13:17 14.5 °C 10.9 °C 1000.2 hPa West 32.2 km/h 53.1 km/h 79 % 0 mm 631 W/m2
13:22 14.5 °C 10.7 °C 1000.2 hPa West 33.8 km/h 59.5 km/h 78 % 0 mm 564 W/m2
13:27 14.5 °C 10.5 °C 999.9 hPa West 37 km/h 59.5 km/h 77 % 0 mm 584 W/m2
13:32 14.5 °C 10.7 °C 1000.2 hPa West 37 km/h 57.9 km/h 78 % 0 mm 610 W/m2
13:37 14.6 °C 10.6 °C 999.9 hPa West 35.4 km/h 62.8 km/h 77 % 0 mm 610 W/m2
13:42 14.6 °C 10.6 °C 1000.2 hPa West 33.8 km/h 62.8 km/h 77 % 0 mm 603 W/m2
13:47 14.5 °C 10.7 °C 999.5 hPa West 35.4 km/h 59.5 km/h 78 % 0 mm 613 W/m2
13:52 14.6 °C 10.8 °C 999.5 hPa West 35.4 km/h 66 km/h 78 % 0 mm 615 W/m2
13:57 14.5 °C 10.7 °C 999.5 hPa West 37 km/h 66 km/h 78 % 0 mm 568 W/m2
14:02 14.3 °C 10.5 °C 999.5 hPa West 40.2 km/h 64.4 km/h 78 % 0 mm 548 W/m2
14:07 14.3 °C 10.7 °C 999.5 hPa West 37 km/h 64.4 km/h 79 % 0 mm 338 W/m2
14:12 14.2 °C 10.6 °C 999.5 hPa West 33.8 km/h 54.7 km/h 79 % 0 mm 540 W/m2
14:17 14.2 °C 10.6 °C 999.5 hPa West 33.8 km/h 61.2 km/h 79 % 0 mm 404 W/m2
14:22 14.2 °C 10.6 °C 999.5 hPa West 35.4 km/h 61.2 km/h 79 % 0 mm 396 W/m2
14:27 14.2 °C 10.6 °C 999.5 hPa West 33.8 km/h 59.5 km/h 79 % 0 mm 420 W/m2
14:32 14.1 °C 10.7 °C 999.9 hPa West 32.2 km/h 59.5 km/h 80 % 0 mm 343 W/m2
14:37 14 °C 10.6 °C 999.5 hPa West 33.8 km/h 59.5 km/h 80 % 0 mm 360 W/m2
14:42 14 °C 10.6 °C 999.5 hPa WSW 32.2 km/h 59.5 km/h 80 % 0 mm 392 W/m2
14:47 14.1 °C 10.7 °C 999.5 hPa WSW 29 km/h 49.9 km/h 80 % 0 mm 373 W/m2
14:52 14.2 °C 10.8 °C 999.5 hPa WSW 30.6 km/h 53.1 km/h 80 % 0 mm 454 W/m2
14:57 14.3 °C 10.9 °C 999.5 hPa West 32.2 km/h 53.1 km/h 80 % 0 mm 452 W/m2
15:02 14.6 °C 11 °C 999.5 hPa West 27.4 km/h 49.9 km/h 79 % 0 mm 462 W/m2
15:07 14.7 °C 10.9 °C 999.5 hPa WSW 24.1 km/h 45.1 km/h 78 % 0 mm 401 W/m2
15:12 14.8 °C 11 °C 999.5 hPa West 27.4 km/h 45.1 km/h 78 % 0 mm 425 W/m2
15:17 14.7 °C 10.9 °C 999.5 hPa West 30.6 km/h 59.5 km/h 78 % 0 mm 425 W/m2
15:22 14.6 °C 10.8 °C 999.5 hPa West 32.2 km/h 59.5 km/h 78 % 0 mm 399 W/m2
15:27 14.6 °C 10.8 °C 999.5 hPa West 29 km/h 53.1 km/h 78 % 0 mm 399 W/m2
15:32 14.6 °C 10.8 °C 999.5 hPa West 29 km/h 48.3 km/h 78 % 0 mm 403 W/m2
15:37 14.6 °C 10.8 °C 999.5 hPa West 27.4 km/h 46.7 km/h 78 % 0 mm 327 W/m2
15:42 14.6 °C 10.8 °C 999.9 hPa West 25.7 km/h 46.7 km/h 78 % 0 mm 236 W/m2
15:47 14.6 °C 10.8 °C 999.5 hPa West 24.1 km/h 41.8 km/h 78 % 0 mm 301 W/m2
15:52 14.4 °C 10.6 °C 999.5 hPa WSW 27.4 km/h 53.1 km/h 78 % 0 mm 264 W/m2
15:53 14.4 °C 10.8 °C 999.5 hPa West 27.4 km/h 53.1 km/h 79 % 0 mm 232 W/m2
15:58 14.4 °C 10.8 °C 999.9 hPa West 25.7 km/h 53.1 km/h 79 % 0 mm 339 W/m2
16:03 14.6 °C 10.8 °C 999.9 hPa West 19.3 km/h 41.8 km/h 78 % 0 mm 306 W/m2
16:08 14.7 °C 10.9 °C 999.9 hPa West 22.5 km/h 41.8 km/h 78 % 0 mm 281 W/m2
16:13 14.6 °C 10.6 °C 999.9 hPa West 27.4 km/h 48.3 km/h 77 % 0 mm 269 W/m2
16:18 14.5 °C 10.5 °C 999.9 hPa West 27.4 km/h 48.3 km/h 77 % 0 mm 272 W/m2
16:23 14.5 °C 10.7 °C 999.9 hPa West 24.1 km/h 45.1 km/h 78 % 0 mm 234 W/m2
16:28 14.5 °C 10.7 °C 999.9 hPa West 22.5 km/h 38.6 km/h 78 % 0 mm 225 W/m2
16:33 14.4 °C 10.8 °C 999.9 hPa West 25.7 km/h 43.5 km/h 79 % 0 mm 209 W/m2
16:38 14.3 °C 10.7 °C 999.9 hPa West 24.1 km/h 43.5 km/h 79 % 0 mm 211 W/m2
16:44 14.4 °C 10.8 °C 999.9 hPa West 20.9 km/h 38.6 km/h 79 % 0 mm 202 W/m2
16:49 14.4 °C 10.8 °C 1000.2 hPa West 20.9 km/h 38.6 km/h 79 % 0 mm 197 W/m2
16:53 14.2 °C 10.6 °C 1000.2 hPa West 20.9 km/h 43.5 km/h 79 % 0 mm 120 W/m2
16:54 14.2 °C 10.6 °C 1000.2 hPa West 20.9 km/h 43.5 km/h 79 % 0 mm 120 W/m2
16:59 14.1 °C 10.7 °C 1000.2 hPa West 25.7 km/h 43.5 km/h 80 % 0 mm 162 W/m2
17:04 13.9 °C 10.5 °C 1000.6 hPa West 25.7 km/h 40.2 km/h 80 % 0 mm 141 W/m2
17:09 13.8 °C 10.6 °C 1000.6 hPa West 24.1 km/h 40.2 km/h 81 % 0 mm 70 W/m2
17:14 13.5 °C 10.5 °C 1000.9 hPa West 24.1 km/h 41.8 km/h 82 % 0 mm 21 W/m2
17:19 13.4 °C 10.6 °C 1000.9 hPa West 20.9 km/h 41.8 km/h 83 % 0 mm 14 W/m2
17:24 13.2 °C 10.4 °C 1000.9 hPa West 20.9 km/h 41.8 km/h 83 % 0 mm 28 W/m2
17:29 13.2 °C 10.6 °C 1001.2 hPa West 22.5 km/h 41.8 km/h 84 % 0 mm 16 W/m2
17:34 13.1 °C 10.4 °C 1001.2 hPa West 16.1 km/h 37 km/h 84 % 0 mm 16 W/m2
17:39 13 °C 10.3 °C 1001.2 hPa West 14.5 km/h 29 km/h 84 % 0 mm 25 W/m2
17:44 13 °C 10.3 °C 1001.6 hPa WNW 14.5 km/h 29 km/h 84 % 0 mm 21 W/m2
17:49 12.9 °C 10.3 °C 1001.6 hPa West 12.9 km/h 29 km/h 84 % 0 mm 28 W/m2
17:54 12.9 °C 10.3 °C 1001.6 hPa WSW 14.5 km/h 29 km/h 84 % 0 mm 12 W/m2
17:59 12.8 °C 10 °C 1001.6 hPa West 16.1 km/h 25.7 km/h 83 % 0 mm 9 W/m2
18:04 12.7 °C 9.9 °C 1001.9 hPa West 14.5 km/h 25.7 km/h 83 % 0 mm 7 W/m2
18:09 12.6 °C 9.9 °C 1001.9 hPa West 14.5 km/h 25.7 km/h 84 % 0 mm 5 W/m2
18:14 12.5 °C 9.9 °C 1001.9 hPa West 12.9 km/h 22.5 km/h 84 % 0 mm 0 W/m2
18:19 12.4 °C 9.8 °C 1001.9 hPa WNW 11.3 km/h 22.5 km/h 84 % 0 mm 0 W/m2
18:24 12.3 °C 9.7 °C 1001.9 hPa West 8 km/h 14.5 km/h 84 % 0 mm 0 W/m2
18:29 12.2 °C 9.6 °C 1002.3 hPa West 6.4 km/h 12.9 km/h 84 % 0 mm 0 W/m2
18:34 12.1 °C 9.5 °C 1002.3 hPa WNW 3.2 km/h 11.3 km/h 84 % 0 mm 0 W/m2
18:39 12 °C 9.4 °C 1002.3 hPa WSW 4.8 km/h 11.3 km/h 84 % 0 mm 0 W/m2
18:45 11.9 °C 9.3 °C 1002.6 hPa WSW 6.4 km/h 12.9 km/h 84 % 0 mm 0 W/m2
18:49 11.7 °C 9.1 °C 1002.9 hPa WSW 6.4 km/h 17.7 km/h 84 % 0 mm 0 W/m2
18:55 11.6 °C 9 °C 1002.9 hPa WSW 8 km/h 17.7 km/h 84 % 0 mm 0 W/m2
19:00 11.4 °C 8.8 °C 1002.9 hPa WSW 9.7 km/h 17.7 km/h 84 % 0 mm 0 W/m2
19:05 11.4 °C 8.8 °C 1003.3 hPa WSW 8 km/h 16.1 km/h 84 % 0 mm 0 W/m2
19:10 11.3 °C 8.9 °C 1003.3 hPa WSW 6.4 km/h 12.9 km/h 85 % 0 mm 0 W/m2
19:15 11.3 °C 8.7 °C 1003.6 hPa WSW 6.4 km/h 12.9 km/h 84 % 0 mm 0 W/m2
19:20 11.3 °C 8.7 °C 1003.3 hPa West 8 km/h 12.9 km/h 84 % 0 mm 0 W/m2
19:25 11.3 °C 8.7 °C 1003.3 hPa WNW 6.4 km/h 12.9 km/h 84 % 0 mm 0 W/m2
19:30 11.2 °C 8.4 °C 1003.3 hPa WNW 6.4 km/h 14.5 km/h 83 % 0 mm 0 W/m2
19:35 11.2 °C 8.4 °C 1003.3 hPa WNW 9.7 km/h 14.5 km/h 83 % 0 mm 0 W/m2
19:40 11.2 °C 8.2 °C 1003.3 hPa WNW 11.3 km/h 17.7 km/h 82 % 0 mm 0 W/m2
19:45 11.2 °C 8.2 °C 1002.9 hPa WNW 11.3 km/h 17.7 km/h 82 % 0 mm 0 W/m2
19:50 11.1 °C 8.2 °C 1002.9 hPa WNW 12.9 km/h 20.9 km/h 82 % 0 mm 0 W/m2
19:55 11.1 °C 8.2 °C 1002.9 hPa West 12.9 km/h 20.9 km/h 82 % 0 mm 0 W/m2
20:00 11 °C 8.2 °C 1002.9 hPa West 11.3 km/h 19.3 km/h 83 % 0 mm 0 W/m2
20:05 10.8 °C 8 °C 1002.9 hPa West 11.3 km/h 17.7 km/h 83 % 0 mm 0 W/m2
20:10 10.7 °C 7.9 °C 1002.9 hPa West 12.9 km/h 22.5 km/h 83 % 0 mm 0 W/m2
20:15 10.7 °C 8.1 °C 1002.9 hPa West 12.9 km/h 22.5 km/h 84 % 0 mm 0 W/m2
20:20 10.6 °C 8 °C 1002.9 hPa WNW 11.3 km/h 17.7 km/h 84 % 0 mm 0 W/m2
20:25 10.6 °C 8 °C 1002.9 hPa WNW 11.3 km/h 17.7 km/h 84 % 0 mm 0 W/m2
20:30 10.4 °C 7.8 °C 1002.9 hPa West 9.7 km/h 12.9 km/h 84 % 0 mm 0 W/m2
20:35 10.3 °C 7.9 °C 1002.9 hPa West 9.7 km/h 12.9 km/h 85 % 0 mm 0 W/m2
20:40 10.2 °C 7.8 °C 1002.9 hPa West 9.7 km/h 14.5 km/h 85 % 0 mm 0 W/m2
20:45 10.2 °C 7.8 °C 1002.9 hPa West 9.7 km/h 14.5 km/h 85 % 0 mm 0 W/m2
20:50 10.1 °C 7.9 °C 1002.9 hPa WNW 9.7 km/h 16.1 km/h 86 % 0 mm 0 W/m2
20:55 10.1 °C 7.9 °C 1002.9 hPa WNW 9.7 km/h 16.1 km/h 86 % 0 mm 0 W/m2
21:00 10.1 °C 7.9 °C 1002.9 hPa WNW 9.7 km/h 14.5 km/h 86 % 0 mm 0 W/m2
21:05 10.1 °C 7.9 °C 1002.9 hPa WNW 6.4 km/h 14.5 km/h 86 % 0 mm 0 W/m2
21:10 10 °C 7.8 °C 1002.9 hPa WNW 3.2 km/h 8 km/h 86 % 0 mm 0 W/m2
21:15 10 °C 7.9 °C 1002.9 hPa WNW 1.6 km/h 8 km/h 87 % 0 mm 0 W/m2
21:20 10 °C 7.9 °C 1002.9 hPa Calm   1.6 km/h 87 % 0 mm 0 W/m2
21:25 9.9 °C 7.8 °C 1002.9 hPa Calm     87 % 0 mm 0 W/m2
21:30 9.9 °C 7.8 °C 1002.9 hPa Calm     87 % 0 mm 0 W/m2
21:35 9.9 °C 8 °C 1002.9 hPa Calm     88 % 0 mm 0 W/m2
21:40 9.8 °C 7.9 °C 1002.9 hPa Calm     88 % 0 mm 0 W/m2
21:46 9.9 °C 8 °C 1002.9 hPa Calm     88 % 0 mm 0 W/m2
21:51 9.9 °C 8.2 °C 1002.9 hPa Calm   1.6 km/h 89 % 0 mm 0 W/m2
22:08 10 °C 8.3 °C 1002.9 hPa Calm     89 % 0 mm 0 W/m2
22:13 10 °C 8.3 °C 1002.6 hPa Calm     89 % 0 mm 0 W/m2
22:18 10 °C 8.3 °C 1002.6 hPa Calm     89 % 0 mm 0 W/m2
22:23 10.1 °C 8.4 °C 1002.6 hPa Calm   1.6 km/h 89 % 0 mm 0 W/m2
22:29 10.1 °C 8.4 °C 1002.6 hPa Calm   3.2 km/h 89 % 0 mm 0 W/m2
22:34 10.1 °C 8.6 °C 1002.6 hPa Calm   4.8 km/h 90 % 0 mm 0 W/m2
22:39 10.1 °C 8.6 °C 1002.3 hPa Calm   4.8 km/h 90 % 0 mm 0 W/m2
22:44 10.1 °C 8.6 °C 1002.3 hPa Calm   1.6 km/h 90 % 0 mm 0 W/m2
22:49 10.1 °C 8.6 °C 1002.6 hPa Calm   1.6 km/h 90 % 0 mm 0 W/m2
22:54 10.2 °C 8.8 °C 1002.6 hPa Calm   1.6 km/h 91 % 0 mm 0 W/m2
22:59 10.2 °C 8.8 °C 1002.6 hPa Calm     91 % 0 mm 0 W/m2
23:04 10.3 °C 8.9 °C 1002.6 hPa Calm     91 % 0 mm 0 W/m2
23:09 10.3 °C 8.9 °C 1002.6 hPa Calm     91 % 0 mm 0 W/m2
23:14 10.3 °C 8.9 °C 1002.6 hPa Calm     91 % 0 mm 0 W/m2
23:19 10.2 °C 8.8 °C 1002.6 hPa Calm   1.6 km/h 91 % 0 mm 0 W/m2
23:24 10.2 °C 8.9 °C 1002.6 hPa Calm   1.6 km/h 92 % 0 mm 0 W/m2
23:29 10.2 °C 8.9 °C 1002.6 hPa Calm   1.6 km/h 92 % 0 mm 0 W/m2
23:34 10.2 °C 8.9 °C 1002.6 hPa Calm   3.2 km/h 92 % 0 mm 0 W/m2
23:39 10.1 °C 8.8 °C 1002.6 hPa Calm   3.2 km/h 92 % 0 mm 0 W/m2
23:44 10.1 °C 8.8 °C 1002.6 hPa WNW 1.6 km/h 8 km/h 92 % 0 mm 0 W/m2
23:49 10.1 °C 9 °C 1002.6 hPa SSW 1.6 km/h 8 km/h 93 % 0 mm 0 W/m2
23:54 10.1 °C 9 °C 1002.6 hPa SE 1.6 km/h 8 km/h 93 % 0 mm 0 W/m2
23:59 10.1 °C 9 °C 1002.3 hPa SE 3.2 km/h 8 km/h 93 % 0 mm 0 W/m2
Delerius-Weather
Compliments of Weather Underground - 2.25 mb

Data updates at regular intervals.